createdAt,value
2017-04-20T00:00:17.785Z,1030.42
2017-04-20T00:01:17.788Z,1030.42
2017-04-20T00:02:17.788Z,1030.39
2017-04-20T00:03:17.793Z,1030.4
2017-04-20T00:04:17.796Z,1030.36
2017-04-20T00:05:17.798Z,1030.37
2017-04-20T00:06:17.800Z,1030.35
2017-04-20T00:07:17.803Z,1030.36
2017-04-20T00:08:17.806Z,1030.39
2017-04-20T00:09:17.859Z,1030.38
2017-04-20T00:10:17.811Z,1030.42
2017-04-20T00:11:17.815Z,1030.4
2017-04-20T00:12:17.817Z,1030.4
2017-04-20T00:13:17.818Z,1030.41
2017-04-20T00:14:17.821Z,1030.4
2017-04-20T00:15:17.825Z,1030.43
2017-04-20T00:16:17.825Z,1030.35
2017-04-20T00:17:17.828Z,1030.41
2017-04-20T00:18:17.881Z,1030.35
2017-04-20T00:19:17.833Z,1030.36
2017-04-20T00:20:17.832Z,1030.39
2017-04-20T00:21:17.837Z,1030.36
2017-04-20T00:22:17.839Z,1030.38
2017-04-20T00:23:17.842Z,1030.38
2017-04-20T00:24:17.844Z,1030.37
2017-04-20T00:25:17.895Z,1030.35
2017-04-20T00:26:17.848Z,1030.4
2017-04-20T00:27:17.850Z,1030.42
2017-04-20T00:28:17.852Z,1030.4
2017-04-20T00:29:17.855Z,1030.42
2017-04-20T00:30:17.908Z,1030.39
2017-04-20T00:31:17.860Z,1030.35
2017-04-20T00:32:17.862Z,1030.39
2017-04-20T00:33:17.866Z,1030.38
2017-04-20T00:34:17.870Z,1030.34
2017-04-20T00:35:17.873Z,1030.34
2017-04-20T00:36:17.876Z,1030.33
2017-04-20T00:37:17.878Z,1030.33
2017-04-20T00:38:17.879Z,1030.36
2017-04-20T00:39:17.888Z,1030.33
2017-04-20T00:40:17.884Z,1030.36
2017-04-20T00:41:17.887Z,1030.34
2017-04-20T00:42:17.938Z,1030.35
2017-04-20T00:43:17.893Z,1030.33
2017-04-20T00:44:17.894Z,1030.34
2017-04-20T00:45:17.946Z,1030.34
2017-04-20T00:46:17.947Z,1030.33
2017-04-20T00:47:17.948Z,1030.28
2017-04-20T00:48:17.900Z,1030.27
2017-04-20T00:49:17.901Z,1030.26
2017-04-20T00:50:17.905Z,1030.22
2017-04-20T00:51:17.906Z,1030.23
2017-04-20T00:52:17.907Z,1030.22
2017-04-20T00:53:17.908Z,1030.22
2017-04-20T00:54:17.911Z,1030.21
2017-04-20T00:55:17.911Z,1030.16
2017-04-20T00:56:17.913Z,1030.21
2017-04-20T00:57:17.915Z,1030.13
2017-04-20T00:58:17.917Z,1030.16
2017-04-20T00:59:17.919Z,1030.14
2017-04-20T01:00:17.920Z,1030.16
2017-04-20T01:01:17.923Z,1030.19
2017-04-20T01:02:17.924Z,1030.21
2017-04-20T01:03:17.977Z,1030.19
2017-04-20T01:04:17.928Z,1030.16
2017-04-20T01:05:17.930Z,1030.21
2017-04-20T01:06:17.932Z,1030.16
2017-04-20T01:07:17.935Z,1030.18
2017-04-20T01:08:17.935Z,1030.16
2017-04-20T01:09:17.937Z,1030.19
2017-04-20T01:10:17.940Z,1030.17
2017-04-20T01:11:17.939Z,1030.15
2017-04-20T01:12:17.941Z,1030.15
2017-04-20T01:13:17.944Z,1030.14
2017-04-20T01:14:17.946Z,1030.08
2017-04-20T01:15:17.997Z,1030.12
2017-04-20T01:16:17.949Z,1030.09
2017-04-20T01:17:17.949Z,1030.14
2017-04-20T01:18:17.951Z,1030.15
2017-04-20T01:19:17.952Z,1030.18
2017-04-20T01:20:17.954Z,1030.16
2017-04-20T01:21:17.955Z,1030.13
2017-04-20T01:22:18.007Z,1030.16
2017-04-20T01:23:17.959Z,1030.18
2017-04-20T01:24:17.961Z,1030.15
2017-04-20T01:25:17.963Z,1030.16
2017-04-20T01:26:17.964Z,1030.18
2017-04-20T01:27:17.964Z,1030.14
2017-04-20T01:28:17.966Z,1030.16
2017-04-20T01:29:17.968Z,1030.1
2017-04-20T01:30:17.970Z,1030.14
2017-04-20T01:31:17.972Z,1030.16
2017-04-20T01:32:17.974Z,1030.15
2017-04-20T01:33:18.027Z,1030.17
2017-04-20T01:34:17.980Z,1030.17
2017-04-20T01:35:17.982Z,1030.18
2017-04-20T01:36:17.986Z,1030.16
2017-04-20T01:37:17.986Z,1030.1
2017-04-20T01:38:17.991Z,1030.1
2017-04-20T01:39:17.994Z,1030.11
2017-04-20T01:40:18.049Z,1030.11
2017-04-20T01:41:18.051Z,1030.1
2017-04-20T01:42:18.002Z,1030.13
2017-04-20T01:43:18.005Z,1030.12
2017-04-20T01:44:18.008Z,1030.13
2017-04-20T01:45:18.061Z,1030.11
2017-04-20T01:46:18.013Z,1030.16
2017-04-20T01:47:18.016Z,1030.16
2017-04-20T01:48:18.068Z,1030.15
2017-04-20T01:49:18.021Z,1030.2
2017-04-20T01:50:18.024Z,1030.16
2017-04-20T01:51:18.028Z,1030.2
2017-04-20T01:52:18.028Z,1030.16
2017-04-20T01:53:18.035Z,1030.16
2017-04-20T01:54:18.034Z,1030.11
2017-04-20T01:55:18.035Z,1030.14
2017-04-20T01:56:18.037Z,1030.12
2017-04-20T01:57:18.039Z,1030.14
2017-04-20T01:58:18.043Z,1030.12
2017-04-20T01:59:18.045Z,1030.15
2017-04-20T02:00:18.047Z,1030.16
2017-04-20T02:01:18.047Z,1030.19
2017-04-20T02:02:18.049Z,1030.19
2017-04-20T02:03:18.050Z,1030.17
2017-04-20T02:04:18.052Z,1030.19
2017-04-20T02:05:18.052Z,1030.2
2017-04-20T02:06:18.053Z,1030.2
2017-04-20T02:07:18.055Z,1030.22
2017-04-20T02:08:18.056Z,1030.2
2017-04-20T02:09:18.059Z,1030.22
2017-04-20T02:10:18.059Z,1030.21
2017-04-20T02:11:18.061Z,1030.2
2017-04-20T02:12:18.064Z,1030.22
2017-04-20T02:13:18.116Z,1030.23
2017-04-20T02:14:18.073Z,1030.21
2017-04-20T02:15:18.067Z,1030.18
2017-04-20T02:16:18.068Z,1030.16
2017-04-20T02:17:18.067Z,1030.2
2017-04-20T02:18:18.071Z,1030.17
2017-04-20T02:19:18.071Z,1030.18
2017-04-20T02:20:18.073Z,1030.14
2017-04-20T02:21:18.075Z,1030.19
2017-04-20T02:22:18.076Z,1030.22
2017-04-20T02:23:18.078Z,1030.17
2017-04-20T02:24:18.080Z,1030.19
2017-04-20T02:25:18.081Z,1030.19
2017-04-20T02:26:18.084Z,1030.18
2017-04-20T02:27:18.086Z,1030.15
2017-04-20T02:28:18.137Z,1030.17
2017-04-20T02:29:18.090Z,1030.16
2017-04-20T02:30:18.093Z,1030.18
2017-04-20T02:31:18.094Z,1030.17
2017-04-20T02:32:18.098Z,1030.17
2017-04-20T02:33:18.100Z,1030.19
2017-04-20T02:34:18.103Z,1030.19
2017-04-20T02:35:18.103Z,1030.18
2017-04-20T02:36:18.107Z,1030.16
2017-04-20T02:37:18.159Z,1030.14
2017-04-20T02:38:18.113Z,1030.17
2017-04-20T02:39:18.112Z,1030.15
2017-04-20T02:40:18.117Z,1030.13
2017-04-20T02:41:18.119Z,1030.14
2017-04-20T02:42:18.120Z,1030.11
2017-04-20T02:43:18.173Z,1030.08
2017-04-20T02:44:18.125Z,1030.1
2017-04-20T02:45:18.128Z,1030.1
2017-04-20T02:46:18.129Z,1030.12
2017-04-20T02:47:18.132Z,1030.14
2017-04-20T02:48:18.133Z,1030.17
2017-04-20T02:49:18.139Z,1030.13
2017-04-20T02:50:18.139Z,1030.11
2017-04-20T02:51:18.155Z,1030.13
2017-04-20T02:52:18.145Z,1030.13
2017-04-20T02:53:18.199Z,1030.06
2017-04-20T02:54:18.200Z,1030.07
2017-04-20T02:55:18.152Z,1030.12
2017-04-20T02:56:18.155Z,1030.12
2017-04-20T02:57:18.208Z,1030.1
2017-04-20T02:58:19.412Z,1030.1
2017-04-20T02:59:18.164Z,1030.11
2017-04-20T03:00:18.213Z,1030.1
2017-04-20T03:01:18.165Z,1030.13
2017-04-20T03:02:18.169Z,1030.14
2017-04-20T03:03:18.169Z,1030.14
2017-04-20T03:04:18.171Z,1030.14
2017-04-20T03:05:18.174Z,1030.14
2017-04-20T03:06:18.175Z,1030.14
2017-04-20T03:07:18.176Z,1030.15
2017-04-20T03:08:18.178Z,1030.14
2017-04-20T03:09:18.178Z,1030.13
2017-04-20T03:10:18.185Z,1030.16
2017-04-20T03:11:18.195Z,1030.13
2017-04-20T03:12:18.184Z,1030.14
2017-04-20T03:13:18.184Z,1030.2
2017-04-20T03:14:18.188Z,1030.16
2017-04-20T03:15:18.190Z,1030.17
2017-04-20T03:16:18.191Z,1030.17
2017-04-20T03:17:18.241Z,1030.15
2017-04-20T03:18:18.192Z,1030.18
2017-04-20T03:19:18.245Z,1030.15
2017-04-20T03:20:18.245Z,1030.18
2017-04-20T03:21:18.198Z,1030.21
2017-04-20T03:22:18.199Z,1030.23
2017-04-20T03:23:18.551Z,1030.17
2017-04-20T03:24:18.202Z,1030.22
2017-04-20T03:25:18.204Z,1030.17
2017-04-20T03:26:18.206Z,1030.19
2017-04-20T03:27:18.207Z,1030.21
2017-04-20T03:28:18.212Z,1030.22
2017-04-20T03:29:18.215Z,1030.26
2017-04-20T03:30:18.217Z,1030.27
2017-04-20T03:31:18.219Z,1030.27
2017-04-20T03:32:18.271Z,1030.25
2017-04-20T03:33:18.228Z,1030.28
2017-04-20T03:34:18.226Z,1030.28
2017-04-20T03:35:18.231Z,1030.26
2017-04-20T03:36:18.235Z,1030.26
2017-04-20T03:37:18.239Z,1030.26
2017-04-20T03:38:18.242Z,1030.22
2017-04-20T03:39:18.294Z,1030.25
2017-04-20T03:40:18.249Z,1030.25
2017-04-20T03:41:18.250Z,1030.21
2017-04-20T03:42:18.254Z,1030.19
2017-04-20T03:43:18.308Z,1030.17
2017-04-20T03:44:18.261Z,1030.19
2017-04-20T03:45:18.264Z,1030.16
2017-04-20T03:46:18.267Z,1030.19
2017-04-20T03:47:18.269Z,1030.2
2017-04-20T03:48:18.272Z,1030.2
2017-04-20T03:49:18.275Z,1030.25
2017-04-20T03:50:18.277Z,1030.18
2017-04-20T03:51:18.281Z,1030.2
2017-04-20T03:52:18.332Z,1030.16
2017-04-20T03:53:18.285Z,1030.19
2017-04-20T03:54:18.290Z,1030.19
2017-04-20T03:55:18.289Z,1030.21
2017-04-20T03:56:18.293Z,1030.23
2017-04-20T03:57:18.296Z,1030.25
2017-04-20T03:58:18.298Z,1030.28
2017-04-20T03:59:18.301Z,1030.27
2017-04-20T04:00:18.303Z,1030.27
2017-04-20T04:01:18.305Z,1030.22
2017-04-20T04:02:18.310Z,1030.26
2017-04-20T04:03:18.312Z,1030.22
2017-04-20T04:04:18.318Z,1030.26
2017-04-20T04:05:18.319Z,1030.26
2017-04-20T04:06:18.320Z,1030.26
2017-04-20T04:07:18.325Z,1030.28
2017-04-20T04:08:18.377Z,1030.26
2017-04-20T04:09:18.330Z,1030.29
2017-04-20T04:10:18.383Z,1030.27
2017-04-20T04:11:18.386Z,1030.24
2017-04-20T04:12:18.340Z,1030.27
2017-04-20T04:13:18.341Z,1030.23
2017-04-20T04:14:18.345Z,1030.24
2017-04-20T04:15:18.354Z,1030.22
2017-04-20T04:16:18.349Z,1030.23
2017-04-20T04:17:18.351Z,1030.22
2017-04-20T04:18:18.352Z,1030.22
2017-04-20T04:19:18.355Z,1030.2
2017-04-20T04:20:18.356Z,1030.23
2017-04-20T04:21:18.407Z,1030.21
2017-04-20T04:22:18.360Z,1030.23
2017-04-20T04:23:18.361Z,1030.22
2017-04-20T04:24:18.363Z,1030.25
2017-04-20T04:25:18.364Z,1030.3
2017-04-20T04:26:18.365Z,1030.28
2017-04-20T04:27:18.368Z,1030.31
2017-04-20T04:28:18.369Z,1030.3
2017-04-20T04:29:18.370Z,1030.32
2017-04-20T04:30:18.374Z,1030.32
2017-04-20T04:31:18.375Z,1030.3
2017-04-20T04:32:18.426Z,1030.31
2017-04-20T04:33:18.380Z,1030.31
2017-04-20T04:34:18.382Z,1030.29
2017-04-20T04:35:18.436Z,1030.32
2017-04-20T04:36:18.438Z,1030.3
2017-04-20T04:37:18.392Z,1030.34
2017-04-20T04:38:18.395Z,1030.35
2017-04-20T04:39:18.447Z,1030.35
2017-04-20T04:40:18.401Z,1030.39
2017-04-20T04:41:18.401Z,1030.36
2017-04-20T04:42:18.408Z,1030.41
2017-04-20T04:43:18.466Z,1030.42
2017-04-20T04:44:18.413Z,1030.39
2017-04-20T04:45:18.417Z,1030.39
2017-04-20T04:46:18.420Z,1030.4
2017-04-20T04:47:18.422Z,1030.41
2017-04-20T04:48:18.477Z,1030.4
2017-04-20T04:49:18.430Z,1030.45
2017-04-20T04:50:18.484Z,1030.42
2017-04-20T04:51:18.437Z,1030.42
2017-04-20T04:52:18.490Z,1030.39
2017-04-20T04:53:18.444Z,1030.4
2017-04-20T04:54:18.445Z,1030.38
2017-04-20T04:55:18.450Z,1030.38
2017-04-20T04:56:18.504Z,1030.4
2017-04-20T04:57:18.458Z,1030.37
2017-04-20T04:58:18.460Z,1030.4
2017-04-20T04:59:18.463Z,1030.38
2017-04-20T05:00:18.468Z,1030.39
2017-04-20T05:01:18.472Z,1030.42
2017-04-20T05:02:18.473Z,1030.43
2017-04-20T05:03:18.477Z,1030.44
2017-04-20T05:04:18.532Z,1030.39
2017-04-20T05:05:18.483Z,1030.45
2017-04-20T05:06:18.486Z,1030.47
2017-04-20T05:07:18.488Z,1030.46
2017-04-20T05:08:18.492Z,1030.43
2017-04-20T05:09:18.495Z,1030.45
2017-04-20T05:10:18.498Z,1030.45
2017-04-20T05:11:18.502Z,1030.48
2017-04-20T05:12:18.506Z,1030.5
2017-04-20T05:13:18.509Z,1030.52
2017-04-20T05:14:18.564Z,1030.56
2017-04-20T05:15:18.566Z,1030.56
2017-04-20T05:16:18.519Z,1030.61
2017-04-20T05:17:18.522Z,1030.72
2017-04-20T05:18:18.524Z,1030.72
2017-04-20T05:19:18.530Z,1030.71
2017-04-20T05:20:18.532Z,1030.73
2017-04-20T05:21:18.537Z,1030.81
2017-04-20T05:22:18.540Z,1030.82
2017-04-20T05:23:18.544Z,1030.75
2017-04-20T05:24:18.596Z,1030.74
2017-04-20T05:25:18.550Z,1030.86
2017-04-20T05:26:18.553Z,1030.83
2017-04-20T05:27:18.558Z,1030.74
2017-04-20T05:28:18.561Z,1030.75
2017-04-20T05:29:18.567Z,1030.7
2017-04-20T05:30:18.571Z,1030.73
2017-04-20T05:31:18.573Z,1030.71
2017-04-20T05:32:18.578Z,1030.69
2017-04-20T05:33:18.631Z,1030.69
2017-04-20T05:34:18.584Z,1030.62
2017-04-20T05:35:18.637Z,1030.61
2017-04-20T05:36:18.639Z,1030.63
2017-04-20T05:37:18.594Z,1030.66
2017-04-20T05:38:18.593Z,1030.68
2017-04-20T05:39:18.596Z,1030.81
2017-04-20T05:40:18.603Z,1030.95
2017-04-20T05:41:18.602Z,1030.95
2017-04-20T05:42:18.602Z,1030.87
2017-04-20T05:43:18.604Z,1030.84
2017-04-20T05:44:18.606Z,1030.85
2017-04-20T05:45:18.607Z,1030.88
2017-04-20T05:46:18.610Z,1030.91
2017-04-20T05:47:18.612Z,1030.87
2017-04-20T05:48:18.663Z,1030.94
2017-04-20T05:49:18.618Z,1030.91
2017-04-20T05:50:18.617Z,1030.9
2017-04-20T05:51:18.618Z,1031.04
2017-04-20T05:52:18.621Z,1030.96
2017-04-20T05:53:18.622Z,1030.91
2017-04-20T05:54:18.623Z,1030.96
2017-04-20T05:55:18.676Z,1031.02
2017-04-20T05:56:18.626Z,1030.89
2017-04-20T05:57:18.629Z,1030.88
2017-04-20T05:58:18.645Z,1030.96
2017-04-20T05:59:18.633Z,1031.02
2017-04-20T06:00:18.634Z,1031.02
2017-04-20T06:01:18.637Z,1030.99
2017-04-20T06:02:18.688Z,1030.89
2017-04-20T06:03:18.691Z,1030.9
2017-04-20T06:04:18.642Z,1030.96
2017-04-20T06:05:18.644Z,1030.95
2017-04-20T06:06:18.647Z,1030.95
2017-04-20T06:07:18.650Z,1030.99
2017-04-20T06:08:18.651Z,1031.02
2017-04-20T06:09:18.653Z,1031.09
2017-04-20T06:10:18.656Z,1031.17
2017-04-20T06:11:18.707Z,1031.07
2017-04-20T06:12:18.660Z,1031.08
2017-04-20T06:13:18.662Z,1031.03
2017-04-20T06:14:18.666Z,1031.05
2017-04-20T06:15:18.666Z,1031.1
2017-04-20T06:16:18.668Z,1031.16
2017-04-20T06:17:18.673Z,1031.19
2017-04-20T06:18:18.674Z,1031.3
2017-04-20T06:19:18.678Z,1031.46
2017-04-20T06:20:18.681Z,1031.39
2017-04-20T06:21:18.683Z,1031.38
2017-04-20T06:22:18.688Z,1031.57
2017-04-20T06:23:18.691Z,1031.55
2017-04-20T06:24:18.694Z,1031.39
2017-04-20T06:25:18.750Z,1031.34
2017-04-20T06:26:18.702Z,1031.48
2017-04-20T06:27:18.707Z,1031.5
2017-04-20T06:28:18.711Z,1031.5
2017-04-20T06:29:18.716Z,1031.63
2017-04-20T06:30:18.719Z,1031.68
2017-04-20T06:31:18.725Z,1031.7
2017-04-20T06:32:18.727Z,1031.81
2017-04-20T06:33:18.731Z,1031.98
2017-04-20T06:34:18.787Z,1031.96
2017-04-20T06:35:18.740Z,1032
2017-04-20T06:36:18.745Z,1032.04
2017-04-20T06:37:18.749Z,1031.86
2017-04-20T06:38:18.803Z,1031.86
2017-04-20T06:39:18.758Z,1031.93
2017-04-20T06:40:18.761Z,1031.84
2017-04-20T06:41:18.766Z,1031.86
2017-04-20T06:42:18.771Z,1031.95
2017-04-20T06:43:18.825Z,1032.01
2017-04-20T06:44:18.780Z,1032.04
2017-04-20T06:45:18.836Z,1031.97
2017-04-20T06:46:18.791Z,1031.99
2017-04-20T06:47:18.796Z,1032.11
2017-04-20T06:48:18.801Z,1032.02
2017-04-20T06:49:18.856Z,1031.98
2017-04-20T06:50:18.862Z,1032.05
2017-04-20T06:51:18.818Z,1032.09
2017-04-20T06:52:18.875Z,1032.05
2017-04-20T06:53:18.831Z,1032.03
2017-04-20T06:54:18.836Z,1031.96
2017-04-20T06:55:19.291Z,1032
2017-04-20T06:56:18.851Z,1031.99
2017-04-20T06:57:18.854Z,1032.02
2017-04-20T06:58:18.910Z,1031.98
2017-04-20T06:59:18.865Z,1031.96
2017-04-20T07:00:18.871Z,1032.05
2017-04-20T07:01:18.928Z,1032.14
2017-04-20T07:02:18.885Z,1032.17
2017-04-20T07:03:18.891Z,1032.29
2017-04-20T07:04:18.951Z,1032.28
2017-04-20T07:05:18.958Z,1031.9
2017-04-20T07:06:18.914Z,1031.32
2017-04-20T07:07:18.922Z,1031.15
2017-04-20T07:08:18.930Z,1031.16
2017-04-20T07:09:18.938Z,1031.09
2017-04-20T07:10:18.945Z,1031.13
2017-04-20T07:11:18.952Z,1031.14
2017-04-20T07:12:19.561Z,1031.1
2017-04-20T07:13:18.965Z,1031.11
2017-04-20T07:14:18.974Z,1031.06
2017-04-20T07:15:19.282Z,1031.08
2017-04-20T07:16:18.987Z,1031.09
2017-04-20T07:17:19.043Z,1031.08
2017-04-20T07:18:19.001Z,1031.07
2017-04-20T07:19:19.009Z,1031.04
2017-04-20T07:20:19.021Z,1031.03
2017-04-20T07:21:19.021Z,1031.03
2017-04-20T07:22:19.028Z,1031.03
2017-04-20T07:23:19.034Z,1031.04
2017-04-20T07:24:19.893Z,1031.04
2017-04-20T07:25:19.048Z,1031.03
2017-04-20T07:26:19.104Z,1031.02
2017-04-20T07:27:19.061Z,1030.99
2017-04-20T07:28:19.065Z,1031.02
2017-04-20T07:29:19.121Z,1031.04
2017-04-20T07:30:19.076Z,1031.04
2017-04-20T07:31:19.082Z,1031.07
2017-04-20T07:32:19.088Z,1031.06
2017-04-20T07:33:19.144Z,1031.06
2017-04-20T07:34:19.150Z,1031.06
2017-04-20T07:35:19.104Z,1031.05
2017-04-20T07:36:19.163Z,1031.03
2017-04-20T07:37:19.118Z,1031
2017-04-20T07:38:19.124Z,1031.06
2017-04-20T07:39:19.128Z,1031.01
2017-04-20T07:40:19.134Z,1031.07
2017-04-20T07:41:19.139Z,1031
2017-04-20T07:42:19.143Z,1031.01
2017-04-20T07:43:19.151Z,1031.04
2017-04-20T07:44:19.155Z,1031.04
2017-04-20T07:45:19.162Z,1031.02
2017-04-20T07:46:19.163Z,1031.02
2017-04-20T07:47:19.168Z,1031.03
2017-04-20T07:48:19.172Z,1031.01
2017-04-20T07:49:19.179Z,1030.97
2017-04-20T07:50:19.178Z,1031
2017-04-20T07:51:19.183Z,1030.98
2017-04-20T07:52:19.186Z,1031.02
2017-04-20T07:53:19.240Z,1031.05
2017-04-20T07:54:19.193Z,1031.01
2017-04-20T07:55:19.199Z,1031
2017-04-20T07:56:19.202Z,1031.01
2017-04-20T07:57:19.706Z,1031.01
2017-04-20T07:58:19.210Z,1031.02
2017-04-20T07:59:19.214Z,1030.99
2017-04-20T08:00:19.221Z,1030.98
2017-04-20T08:01:19.274Z,1030.99
2017-04-20T08:02:19.230Z,1030.95
2017-04-20T08:03:19.235Z,1030.97
2017-04-20T08:04:19.239Z,1030.99
2017-04-20T08:05:19.246Z,1030.94
2017-04-20T08:06:19.302Z,1030.97
2017-04-20T08:07:19.257Z,1030.91
2017-04-20T08:08:19.262Z,1031
2017-04-20T08:09:19.268Z,1031.03
2017-04-20T08:10:19.274Z,1030.98
2017-04-20T08:11:19.279Z,1030.96
2017-04-20T08:12:19.284Z,1031
2017-04-20T08:13:19.291Z,1030.98
2017-04-20T08:14:19.296Z,1030.96
2017-04-20T08:15:19.300Z,1030.96
2017-04-20T08:16:19.306Z,1030.95
2017-04-20T08:17:19.314Z,1030.99
2017-04-20T08:18:19.373Z,1031
2017-04-20T08:19:19.324Z,1031
2017-04-20T08:20:19.329Z,1030.99
2017-04-20T08:21:19.336Z,1031
2017-04-20T08:22:19.342Z,1030.99
2017-04-20T08:23:19.347Z,1031.03
2017-04-20T08:24:19.354Z,1031.05
2017-04-20T08:25:19.407Z,1030.99
2017-04-20T08:26:19.363Z,1030.99
2017-04-20T08:27:19.369Z,1031.01
2017-04-20T08:28:19.374Z,1030.96
2017-04-20T08:29:19.379Z,1031.03
2017-04-20T08:30:19.383Z,1031.07
2017-04-20T08:31:19.388Z,1031.05
2017-04-20T08:32:19.391Z,1031.01
2017-04-20T08:33:19.397Z,1031.06
2017-04-20T08:34:19.399Z,1031.03
2017-04-20T08:35:19.404Z,1031.01
2017-04-20T08:36:19.409Z,1031.07
2017-04-20T08:37:19.463Z,1031.03
2017-04-20T08:38:19.417Z,1031.03
2017-04-20T08:39:19.421Z,1030.98
2017-04-20T08:40:19.426Z,1031.02
2017-04-20T08:41:19.429Z,1030.98
2017-04-20T08:42:19.437Z,1030.97
2017-04-20T08:43:19.442Z,1030.99
2017-04-20T08:44:19.445Z,1030.99
2017-04-20T08:45:19.451Z,1031
2017-04-20T08:46:19.506Z,1030.99
2017-04-20T08:47:19.462Z,1031.01
2017-04-20T08:48:19.465Z,1031.01
2017-04-20T08:49:19.471Z,1031.02
2017-04-20T08:50:19.477Z,1030.97
2017-04-20T08:51:19.530Z,1030.96
2017-04-20T08:52:19.486Z,1030.98
2017-04-20T08:53:19.491Z,1030.94
2017-04-20T08:54:19.497Z,1030.93
2017-04-20T08:55:19.551Z,1030.95
2017-04-20T08:56:19.507Z,1030.93
2017-04-20T08:57:19.512Z,1030.97
2017-04-20T08:58:19.519Z,1030.97
2017-04-20T08:59:19.522Z,1030.93
2017-04-20T09:00:19.528Z,1030.89
2017-04-20T09:01:19.532Z,1030.93
2017-04-20T09:02:19.538Z,1030.98
2017-04-20T09:03:19.542Z,1030.92
2017-04-20T09:04:19.548Z,1030.91
2017-04-20T09:05:19.555Z,1030.93
2017-04-20T09:06:19.559Z,1030.92
2017-04-20T09:07:19.564Z,1030.9
2017-04-20T09:08:19.569Z,1030.87
2017-04-20T09:09:19.576Z,1030.9
2017-04-20T09:10:19.581Z,1030.89
2017-04-20T09:11:19.638Z,1030.84
2017-04-20T09:12:19.646Z,1030.84
2017-04-20T09:13:19.598Z,1030.86
2017-04-20T09:14:19.602Z,1030.84
2017-04-20T09:15:19.609Z,1030.81
2017-04-20T09:16:19.610Z,1030.84
2017-04-20T09:17:19.616Z,1030.84
2017-04-20T09:18:19.621Z,1030.84
2017-04-20T09:19:19.628Z,1030.83
2017-04-20T09:20:19.633Z,1030.82
2017-04-20T09:21:19.637Z,1030.82
2017-04-20T09:22:19.643Z,1030.84
2017-04-20T09:23:19.648Z,1030.84
2017-04-20T09:24:19.653Z,1030.82
2017-04-20T09:25:19.706Z,1030.89
2017-04-20T09:26:19.661Z,1030.88
2017-04-20T09:27:19.665Z,1030.78
2017-04-20T09:28:21.220Z,1030.79
2017-04-20T09:29:19.674Z,1030.83
2017-04-20T09:30:19.678Z,1030.76
2017-04-20T09:31:19.684Z,1030.75
2017-04-20T09:32:19.688Z,1030.75
2017-04-20T09:33:19.695Z,1030.74
2017-04-20T09:34:19.698Z,1030.76
2017-04-20T09:35:19.706Z,1030.74
2017-04-20T09:36:19.712Z,1030.72
2017-04-20T09:37:19.718Z,1030.74
2017-04-20T09:38:19.722Z,1030.78
2017-04-20T09:39:19.729Z,1030.72
2017-04-20T09:40:19.736Z,1030.71
2017-04-20T09:41:19.741Z,1030.74
2017-04-20T09:42:19.750Z,1030.74
2017-04-20T09:43:19.756Z,1030.74
2017-04-20T09:44:19.830Z,1030.72
2017-04-20T09:45:19.770Z,1030.71
2017-04-20T09:46:19.827Z,1030.7
2017-04-20T09:47:19.834Z,1030.73
2017-04-20T09:48:19.794Z,1030.77
2017-04-20T09:49:19.798Z,1030.75
2017-04-20T09:50:19.802Z,1030.7
2017-04-20T09:51:19.860Z,1030.72
2017-04-20T09:52:19.814Z,1030.71
2017-04-20T09:53:19.872Z,1030.7
2017-04-20T09:54:19.828Z,1030.67
2017-04-20T09:55:19.884Z,1030.67
2017-04-20T09:56:19.845Z,1030.73
2017-04-20T09:57:19.849Z,1030.68
2017-04-20T09:58:19.856Z,1030.65
2017-04-20T09:59:19.861Z,1030.69
2017-04-20T10:00:19.867Z,1030.68
2017-04-20T10:01:19.873Z,1030.66
2017-04-20T10:02:19.880Z,1030.68
2017-04-20T10:03:19.887Z,1030.71
2017-04-20T10:04:19.896Z,1030.69
2017-04-20T10:05:19.901Z,1030.69
2017-04-20T10:06:19.908Z,1030.66
2017-04-20T10:07:19.917Z,1030.73
2017-04-20T10:08:19.922Z,1030.65
2017-04-20T10:09:19.928Z,1030.66
2017-04-20T10:10:19.936Z,1030.68
2017-04-20T10:11:19.944Z,1030.65
2017-04-20T10:12:19.949Z,1030.63
2017-04-20T10:13:19.955Z,1030.67
2017-04-20T10:14:19.959Z,1030.67
2017-04-20T10:15:19.966Z,1030.65
2017-04-20T10:16:20.020Z,1030.66
2017-04-20T10:17:19.977Z,1030.66
2017-04-20T10:18:19.984Z,1030.64
2017-04-20T10:19:19.989Z,1030.62
2017-04-20T10:20:19.995Z,1030.59
2017-04-20T10:21:20.002Z,1030.64
2017-04-20T10:22:20.006Z,1030.61
2017-04-20T10:23:20.011Z,1030.59
2017-04-20T10:24:20.016Z,1030.55
2017-04-20T10:25:20.072Z,1030.55
2017-04-20T10:26:20.025Z,1030.58
2017-04-20T10:27:20.031Z,1030.58
2017-04-20T10:28:20.038Z,1030.57
2017-04-20T10:29:20.041Z,1030.53
2017-04-20T10:30:20.048Z,1030.55
2017-04-20T10:31:20.103Z,1030.56
2017-04-20T10:32:20.060Z,1030.55
2017-04-20T10:33:20.117Z,1030.54
2017-04-20T10:34:20.073Z,1030.54
2017-04-20T10:35:20.078Z,1030.52
2017-04-20T10:36:20.083Z,1030.56
2017-04-20T10:37:20.091Z,1030.54
2017-04-20T10:38:20.090Z,1030.56
2017-04-20T10:39:20.096Z,1030.56
2017-04-20T10:40:20.100Z,1030.53
2017-04-20T10:41:20.106Z,1030.53
2017-04-20T10:42:20.110Z,1030.47
2017-04-20T10:43:20.111Z,1030.5
2017-04-20T10:44:20.616Z,1030.49
2017-04-20T10:45:20.120Z,1030.47
2017-04-20T10:46:20.126Z,1030.45
2017-04-20T10:47:20.131Z,1030.48
2017-04-20T10:48:20.185Z,1030.44
2017-04-20T10:49:20.137Z,1030.46
2017-04-20T10:50:20.194Z,1030.42
2017-04-20T10:51:20.148Z,1030.38
2017-04-20T10:52:20.154Z,1030.41
2017-04-20T10:53:20.157Z,1030.34
2017-04-20T10:54:20.162Z,1030.36
2017-04-20T10:55:20.213Z,1030.31
2017-04-20T10:56:20.167Z,1030.36
2017-04-20T10:57:20.171Z,1030.35
2017-04-20T10:58:20.174Z,1030.36
2017-04-20T10:59:20.177Z,1030.35
2017-04-20T11:00:20.181Z,1030.35
2017-04-20T11:01:20.185Z,1030.38
2017-04-20T11:02:20.188Z,1030.37
2017-04-20T11:03:20.192Z,1030.4
2017-04-20T11:04:20.196Z,1030.4
2017-04-20T11:05:20.201Z,1030.35
2017-04-20T11:06:20.205Z,1030.34
2017-04-20T11:07:20.206Z,1030.27
2017-04-20T11:08:20.210Z,1030.36
2017-04-20T11:09:20.214Z,1030.39
2017-04-20T11:10:20.219Z,1030.36
2017-04-20T11:11:20.272Z,1030.36
2017-04-20T11:12:20.231Z,1030.37
2017-04-20T11:13:20.228Z,1030.33
2017-04-20T11:14:20.242Z,1030.33
2017-04-20T11:15:20.236Z,1030.28
2017-04-20T11:16:20.241Z,1030.34
2017-04-20T11:17:20.246Z,1030.27
2017-04-20T11:18:20.249Z,1030.22
2017-04-20T11:19:20.252Z,1030.21
2017-04-20T11:20:20.259Z,1030.21
2017-04-20T11:21:20.261Z,1030.17
2017-04-20T11:22:20.264Z,1030.16
2017-04-20T11:23:20.268Z,1030.19
2017-04-20T11:24:20.270Z,1030.16
2017-04-20T11:25:20.273Z,1030.18
2017-04-20T11:26:20.276Z,1030.15
2017-04-20T11:27:20.281Z,1030.13
2017-04-20T11:28:20.284Z,1030.14
2017-04-20T11:29:20.289Z,1030.08
2017-04-20T11:30:20.293Z,1030.08
2017-04-20T11:31:20.297Z,1030.05
2017-04-20T11:32:20.301Z,1030.06
2017-04-20T11:33:20.304Z,1030.03
2017-04-20T11:34:20.309Z,1030.06
2017-04-20T11:35:20.362Z,1030.03
2017-04-20T11:36:20.315Z,1029.99
2017-04-20T11:37:20.322Z,1029.97
2017-04-20T11:38:20.325Z,1030.03
2017-04-20T11:39:20.327Z,1029.99
2017-04-20T11:40:20.381Z,1030
2017-04-20T11:41:20.337Z,1029.95
2017-04-20T11:42:20.341Z,1029.9
2017-04-20T11:43:20.345Z,1029.93
2017-04-20T11:44:20.349Z,1029.94
2017-04-20T11:45:20.353Z,1029.93
2017-04-20T11:46:20.358Z,1029.91
2017-04-20T11:47:20.362Z,1029.95
2017-04-20T11:48:20.366Z,1029.98
2017-04-20T11:49:20.372Z,1029.94
2017-04-20T11:50:20.377Z,1029.91
2017-04-20T11:51:20.378Z,1029.89
2017-04-20T11:52:20.390Z,1029.85
2017-04-20T11:53:20.435Z,1029.9
2017-04-20T11:54:20.390Z,1029.88
2017-04-20T11:55:20.443Z,1029.86
2017-04-20T11:56:20.397Z,1029.85
2017-04-20T11:57:20.400Z,1029.83
2017-04-20T11:58:20.404Z,1029.79
2017-04-20T11:59:20.409Z,1029.75
2017-04-20T12:00:20.410Z,1029.79
2017-04-20T12:01:20.416Z,1029.74
2017-04-20T12:02:20.418Z,1029.75
2017-04-20T12:03:20.422Z,1029.76
2017-04-20T12:04:20.426Z,1029.74
2017-04-20T12:05:20.478Z,1029.76
2017-04-20T12:06:20.432Z,1029.74
2017-04-20T12:07:20.436Z,1029.75
2017-04-20T12:08:20.438Z,1029.72